Algiers, Louisiana
Current Conditions -  °F | °C
As of 8:35 PM on Wednesday 22 Oct 2014 (Local Time) from KVSH Reporting Station
Clear Clear  
Wind Chill: 73°   Ceiling: Unl
Heat Index: 73°   Visibility: 10mi
Dew Point: 54°   Wind: 5mph
Humidity: 50%   Direction: 20°NNE
Pressure: 30.06"   Gusts: NA
Location:  29.935°N, 90.0314°W
Report Text: KVSH 230135Z AUTO 02004KT 10SM CLR 23/12 A3006 RMK AO1
Loading
Personal Weather Stations






























Interactive Weather Map New forecast layout! Learn more

10-Day Weather Forecast

Advertisements
Track Severe Weather on mobile